createdAt,value
2019-05-19T00:01:00.236Z,12.30
2019-05-19T00:03:27.436Z,12.40
2019-05-19T00:05:54.632Z,12.40
2019-05-19T00:08:21.836Z,12.40
2019-05-19T00:10:49.012Z,12.40
2019-05-19T00:13:16.206Z,12.40
2019-05-19T00:15:43.405Z,12.40
2019-05-19T00:18:10.660Z,12.30
2019-05-19T00:20:37.853Z,12.20
2019-05-19T00:23:05.052Z,12.10
2019-05-19T00:25:33.017Z,12.20
2019-05-19T00:28:00.292Z,12.20
2019-05-19T00:30:27.509Z,12.00
2019-05-19T00:32:54.781Z,12.00
2019-05-19T00:35:22.033Z,11.90
2019-05-19T00:37:49.309Z,11.80
2019-05-19T00:40:16.501Z,11.80
2019-05-19T00:42:43.696Z,11.80
2019-05-19T00:45:11.087Z,11.90
2019-05-19T00:47:38.584Z,11.80
2019-05-19T00:50:06.837Z,12.10
2019-05-19T00:52:34.124Z,12.50
2019-05-19T00:55:01.321Z,12.90
2019-05-19T00:57:29.101Z,13.10
2019-05-19T00:59:56.708Z,13.20
2019-05-19T01:02:23.885Z,13.20
2019-05-19T01:04:51.081Z,13.30
2019-05-19T01:07:18.576Z,13.20
2019-05-19T01:09:45.768Z,13.20
2019-05-19T01:12:12.950Z,13.20
2019-05-19T01:14:40.141Z,13.30
2019-05-19T01:17:07.310Z,13.30
2019-05-19T01:19:34.500Z,13.30
2019-05-19T01:22:01.792Z,13.30
2019-05-19T01:24:28.977Z,13.20
2019-05-19T01:26:56.285Z,12.90
2019-05-19T01:29:25.393Z,12.60
2019-05-19T01:31:52.680Z,12.20
2019-05-19T01:34:19.873Z,11.90
2019-05-19T01:36:47.076Z,11.70
2019-05-19T01:39:14.268Z,11.50
2019-05-19T01:41:41.452Z,11.40
2019-05-19T01:44:08.631Z,11.30
2019-05-19T01:46:35.837Z,11.30
2019-05-19T01:49:03.113Z,11.40
2019-05-19T01:51:30.308Z,11.50
2019-05-19T01:53:57.512Z,11.60
2019-05-19T01:56:24.741Z,11.60
2019-05-19T01:58:51.929Z,11.70
2019-05-19T02:01:19.130Z,11.90
2019-05-19T02:03:46.316Z,11.80
2019-05-19T02:06:13.503Z,11.80
2019-05-19T02:08:40.706Z,11.80
2019-05-19T02:11:07.900Z,11.90
2019-05-19T02:13:35.296Z,12.00
2019-05-19T02:16:02.470Z,12.00
2019-05-19T02:18:31.553Z,12.20
2019-05-19T02:20:58.747Z,12.20
2019-05-19T02:23:25.948Z,12.30
2019-05-19T02:25:53.168Z,12.40
2019-05-19T02:28:20.354Z,12.50
2019-05-19T02:30:47.621Z,12.70
2019-05-19T02:33:14.864Z,12.70
2019-05-19T02:35:42.104Z,12.70
2019-05-19T02:38:09.309Z,12.80
2019-05-19T02:40:39.299Z,12.80
2019-05-19T02:43:07.385Z,12.80
2019-05-19T02:45:35.465Z,12.70
2019-05-19T02:48:02.855Z,12.80
2019-05-19T02:50:31.155Z,12.90
2019-05-19T02:52:59.767Z,12.80
2019-05-19T02:55:27.763Z,12.70
2019-05-19T02:57:55.453Z,12.60
2019-05-19T03:00:36.903Z,12.40
2019-05-19T03:03:04.852Z,12.30
2019-05-19T03:05:32.029Z,12.20
2019-05-19T03:07:59.120Z,12.10
2019-05-19T03:10:26.318Z,11.90
2019-05-19T03:12:53.531Z,11.90
2019-05-19T03:15:20.830Z,11.90
2019-05-19T03:17:48.023Z,11.80
2019-05-19T03:20:15.189Z,11.70
2019-05-19T03:22:42.380Z,11.70
2019-05-19T03:25:09.572Z,11.60
2019-05-19T03:27:36.781Z,12.00
2019-05-19T03:30:22.378Z,12.20
2019-05-19T03:32:54.006Z,12.30
2019-05-19T03:35:21.226Z,12.30
2019-05-19T03:37:48.422Z,12.40
2019-05-19T03:40:21.624Z,12.50
2019-05-19T03:42:50.189Z,12.60
2019-05-19T03:45:17.385Z,12.70
2019-05-19T03:47:44.601Z,12.70
2019-05-19T03:50:11.804Z,12.60
2019-05-19T03:52:38.984Z,12.60
2019-05-19T03:55:06.205Z,12.60
2019-05-19T03:57:33.392Z,12.60
2019-05-19T04:00:00.583Z,12.60
2019-05-19T04:02:27.762Z,12.50
2019-05-19T04:04:54.957Z,12.50
2019-05-19T04:07:22.137Z,12.40
2019-05-19T04:09:51.162Z,12.50
2019-05-19T04:12:18.430Z,12.50
2019-05-19T04:14:45.618Z,12.50
2019-05-19T04:17:12.806Z,12.50
2019-05-19T04:19:40.010Z,12.60
2019-05-19T04:22:07.196Z,12.70
2019-05-19T04:24:38.168Z,12.70
2019-05-19T04:27:05.365Z,12.60
2019-05-19T04:29:32.538Z,12.60
2019-05-19T04:31:59.725Z,12.70
2019-05-19T04:34:26.945Z,12.70
2019-05-19T04:36:54.537Z,12.90
2019-05-19T04:39:21.723Z,12.80
2019-05-19T04:41:48.938Z,12.80
2019-05-19T04:44:16.124Z,12.90
2019-05-19T04:46:43.341Z,12.90
2019-05-19T04:49:10.548Z,13.10
2019-05-19T04:51:37.716Z,13.20
2019-05-19T04:54:04.904Z,13.40
2019-05-19T04:56:32.109Z,13.60
2019-05-19T04:58:59.403Z,13.70
2019-05-19T05:01:26.597Z,13.80
2019-05-19T05:03:53.789Z,14.00
2019-05-19T05:06:21.063Z,14.10
2019-05-19T05:08:48.257Z,14.10
2019-05-19T05:11:15.441Z,14.10
2019-05-19T05:13:44.153Z,14.20
2019-05-19T05:16:11.344Z,14.20
2019-05-19T05:18:38.550Z,14.30
2019-05-19T05:21:05.721Z,14.30
2019-05-19T05:23:32.916Z,14.40
2019-05-19T05:26:00.148Z,14.50
2019-05-19T05:28:27.349Z,14.50
2019-05-19T05:30:54.552Z,14.60
2019-05-19T05:33:21.748Z,14.70
2019-05-19T05:35:48.920Z,14.70
2019-05-19T05:38:16.148Z,14.70
2019-05-19T05:40:43.444Z,14.80
2019-05-19T05:43:10.649Z,14.90
2019-05-19T05:45:37.852Z,14.90
2019-05-19T05:48:05.081Z,15.00
2019-05-19T05:50:32.246Z,15.00
2019-05-19T05:52:59.447Z,15.00
2019-05-19T05:55:26.648Z,15.20
2019-05-19T05:57:53.873Z,15.20
2019-05-19T06:00:22.965Z,15.20
2019-05-19T06:02:50.171Z,15.20
2019-05-19T06:05:17.510Z,15.40
2019-05-19T06:07:44.649Z,15.40
2019-05-19T06:10:12.026Z,15.50
2019-05-19T06:12:39.224Z,15.60
2019-05-19T06:15:06.959Z,15.60
2019-05-19T06:17:34.237Z,15.60
2019-05-19T06:20:01.425Z,15.80
2019-05-19T06:22:28.722Z,15.80
2019-05-19T06:24:58.989Z,15.70
2019-05-19T06:27:25.006Z,15.70
2019-05-19T06:29:52.206Z,15.90
2019-05-19T06:32:29.257Z,15.90
2019-05-19T06:34:56.434Z,16.10
2019-05-19T06:37:23.632Z,16.20
2019-05-19T06:39:50.856Z,16.40
2019-05-19T06:42:18.056Z,16.70
2019-05-19T06:44:45.235Z,16.90
2019-05-19T06:47:12.421Z,16.90
2019-05-19T06:49:39.620Z,16.90
2019-05-19T06:52:06.791Z,17.30
2019-05-19T06:54:34.112Z,17.60
2019-05-19T06:57:01.285Z,17.90
2019-05-19T06:59:29.288Z,18.10
2019-05-19T07:01:56.489Z,18.10
2019-05-19T07:04:23.671Z,18.10
2019-05-19T07:06:50.892Z,18.20
2019-05-19T07:09:18.169Z,18.30
2019-05-19T07:11:45.396Z,18.20
2019-05-19T07:14:12.631Z,18.00
2019-05-19T07:16:39.908Z,18.00
2019-05-19T07:19:07.100Z,17.60
2019-05-19T07:21:34.325Z,17.80
2019-05-19T07:24:01.509Z,17.70
2019-05-19T07:26:28.709Z,17.60
2019-05-19T07:28:58.875Z,17.70
2019-05-19T07:31:25.005Z,17.60
2019-05-19T07:33:52.180Z,17.60
2019-05-19T07:36:19.384Z,17.90
2019-05-19T07:38:46.665Z,18.00
2019-05-19T07:41:13.892Z,17.90
2019-05-19T07:43:41.077Z,18.00
2019-05-19T07:46:08.280Z,18.10
2019-05-19T07:48:35.458Z,18.30
2019-05-19T07:51:02.723Z,18.40
2019-05-19T07:53:42.198Z,18.50
2019-05-19T07:55:59.168Z,18.60
2019-05-19T07:58:26.741Z,18.80
2019-05-19T08:00:53.936Z,18.70
2019-05-19T08:03:21.151Z,18.60
2019-05-19T08:05:48.320Z,18.80
2019-05-19T08:08:15.535Z,18.90
2019-05-19T08:10:42.869Z,19.00
2019-05-19T08:13:10.117Z,19.00
2019-05-19T08:15:37.320Z,19.10
2019-05-19T08:18:04.501Z,19.00
2019-05-19T08:20:31.790Z,19.00
2019-05-19T08:22:58.880Z,19.20
2019-05-19T08:25:26.078Z,19.20
2019-05-19T08:27:53.284Z,19.40
2019-05-19T08:30:20.772Z,19.60
2019-05-19T08:32:47.944Z,19.90
2019-05-19T08:35:15.748Z,19.70
2019-05-19T08:37:42.950Z,19.90
2019-05-19T08:40:10.138Z,19.80
2019-05-19T08:42:37.344Z,19.90
2019-05-19T08:45:04.994Z,20.00
2019-05-19T08:47:32.192Z,20.00
2019-05-19T08:49:59.415Z,20.10
2019-05-19T08:52:26.614Z,19.40
2019-05-19T08:54:53.908Z,19.30
2019-05-19T08:57:21.392Z,19.30
2019-05-19T08:59:48.583Z,19.20
2019-05-19T09:02:15.776Z,19.20
2019-05-19T09:04:42.973Z,19.30
2019-05-19T09:07:10.178Z,19.40
2019-05-19T09:09:37.795Z,19.70
2019-05-19T09:12:05.028Z,20.20
2019-05-19T09:14:32.894Z,20.20
2019-05-19T09:17:00.403Z,20.10
2019-05-19T09:19:27.897Z,19.90
2019-05-19T09:21:55.080Z,20.40
2019-05-19T09:24:29.950Z,20.80
2019-05-19T09:26:51.396Z,21.10
2019-05-19T09:29:18.657Z,20.70
2019-05-19T09:31:45.865Z,20.50
2019-05-19T09:34:13.080Z,20.70
2019-05-19T09:36:40.271Z,20.80
2019-05-19T09:39:07.436Z,21.00
2019-05-19T09:41:34.684Z,20.80
2019-05-19T09:44:01.977Z,21.20
2019-05-19T09:46:29.167Z,21.50
2019-05-19T09:49:14.460Z,21.10
2019-05-19T09:51:41.640Z,20.90
2019-05-19T09:54:08.829Z,21.00
2019-05-19T09:56:36.010Z,21.40
2019-05-19T09:59:03.295Z,21.50
2019-05-19T10:01:30.497Z,21.30
2019-05-19T10:03:57.504Z,21.00
2019-05-19T10:06:24.716Z,21.30
2019-05-19T10:08:59.713Z,21.60
2019-05-19T10:12:02.352Z,21.10
2019-05-19T10:14:29.665Z,20.70
2019-05-19T10:16:56.852Z,20.80
2019-05-19T10:19:24.048Z,20.90
2019-05-19T10:21:51.274Z,20.90
2019-05-19T10:24:18.598Z,21.00
2019-05-19T10:26:45.947Z,21.10
2019-05-19T10:29:13.141Z,21.40
2019-05-19T10:31:40.316Z,21.40
2019-05-19T10:34:07.504Z,21.00
2019-05-19T10:36:34.701Z,21.00
2019-05-19T10:39:01.905Z,21.10
2019-05-19T10:41:29.098Z,21.30
2019-05-19T10:44:00.814Z,21.40
2019-05-19T10:46:28.302Z,21.50
2019-05-19T10:48:55.588Z,21.90
2019-05-19T10:51:22.789Z,21.90
2019-05-19T10:53:49.968Z,21.70
2019-05-19T10:56:19.132Z,21.20
2019-05-19T10:58:46.303Z,21.10
2019-05-19T11:01:13.496Z,20.90
2019-05-19T11:03:40.701Z,21.40
2019-05-19T11:06:08.903Z,21.80
2019-05-19T11:08:36.088Z,22.30
2019-05-19T11:11:03.305Z,22.50
2019-05-19T11:13:30.571Z,22.30
2019-05-19T11:15:57.769Z,21.80
2019-05-19T11:18:24.976Z,21.80
2019-05-19T11:20:52.169Z,21.50
2019-05-19T11:23:19.373Z,21.70
2019-05-19T11:25:51.555Z,21.80
2019-05-19T11:28:15.729Z,21.90
2019-05-19T11:30:42.930Z,21.90
2019-05-19T11:33:10.117Z,21.70
2019-05-19T11:35:37.319Z,22.00
2019-05-19T11:38:04.500Z,22.00
2019-05-19T11:40:31.704Z,21.80
2019-05-19T11:42:58.884Z,21.80
2019-05-19T11:45:26.138Z,21.80
2019-05-19T11:47:53.332Z,21.70
2019-05-19T11:50:20.526Z,21.60
2019-05-19T11:52:47.717Z,21.70
2019-05-19T11:55:14.903Z,22.20
2019-05-19T11:57:42.109Z,22.50
2019-05-19T12:00:10.182Z,22.50
2019-05-19T12:02:37.376Z,22.80
2019-05-19T12:05:04.596Z,23.00
2019-05-19T12:07:31.785Z,22.30
2019-05-19T12:09:58.972Z,21.70
2019-05-19T12:12:26.177Z,21.40
2019-05-19T12:14:53.363Z,21.50
2019-05-19T12:17:20.553Z,21.30
2019-05-19T12:19:47.742Z,21.20
2019-05-19T12:22:15.124Z,21.30
2019-05-19T12:24:42.314Z,21.40
2019-05-19T12:27:09.639Z,21.60
2019-05-19T12:29:36.805Z,21.60
2019-05-19T12:32:03.998Z,21.60
2019-05-19T12:34:31.190Z,22.00
2019-05-19T12:36:58.377Z,22.30
2019-05-19T12:39:25.563Z,22.30
2019-05-19T12:41:52.891Z,21.90
2019-05-19T12:44:20.250Z,22.00
2019-05-19T12:46:48.340Z,21.90
2019-05-19T12:49:15.538Z,22.00
2019-05-19T12:51:42.779Z,22.00
2019-05-19T12:54:10.013Z,21.90
2019-05-19T12:56:40.102Z,21.60
2019-05-19T12:59:06.309Z,21.50
2019-05-19T13:01:33.526Z,21.60
2019-05-19T13:04:00.781Z,21.70
2019-05-19T13:06:27.957Z,21.40
2019-05-19T13:08:55.156Z,21.20
2019-05-19T13:11:22.328Z,21.30
2019-05-19T13:13:49.536Z,21.10
2019-05-19T13:16:16.740Z,21.20
2019-05-19T13:18:43.932Z,21.40
2019-05-19T13:21:13.352Z,21.80
2019-05-19T13:23:40.546Z,21.60
2019-05-19T13:26:07.731Z,21.30
2019-05-19T13:28:35.036Z,21.10
2019-05-19T13:31:02.240Z,20.90
2019-05-19T13:33:29.461Z,21.00
2019-05-19T13:35:56.712Z,21.10
2019-05-19T13:38:23.908Z,21.10
2019-05-19T13:40:51.111Z,21.10
2019-05-19T13:43:18.297Z,21.00
2019-05-19T13:45:45.497Z,21.00
2019-05-19T13:48:12.719Z,21.00
2019-05-19T13:50:40.075Z,21.10
2019-05-19T13:53:07.244Z,20.90
2019-05-19T13:55:34.454Z,21.20
2019-05-19T13:58:03.545Z,21.40
2019-05-19T14:00:30.708Z,21.40
2019-05-19T14:02:57.900Z,21.60
2019-05-19T14:05:25.068Z,21.60
2019-05-19T14:07:52.253Z,21.30
2019-05-19T14:10:19.536Z,21.30
2019-05-19T14:12:46.721Z,21.20
2019-05-19T14:15:13.900Z,21.20
2019-05-19T14:17:41.104Z,21.40
2019-05-19T14:20:08.894Z,21.60
2019-05-19T14:22:36.160Z,21.20
2019-05-19T14:25:03.748Z,21.20
2019-05-19T14:27:31.163Z,20.80
2019-05-19T14:29:58.541Z,20.70
2019-05-19T14:32:25.772Z,21.00
2019-05-19T14:34:52.953Z,21.30
2019-05-19T14:37:20.193Z,21.50
2019-05-19T14:39:47.528Z,21.60
2019-05-19T14:42:34.340Z,21.60
2019-05-19T14:45:01.839Z,21.40
2019-05-19T14:47:29.033Z,21.40
2019-05-19T14:49:56.325Z,21.50
2019-05-19T14:52:23.520Z,21.80
2019-05-19T14:54:50.789Z,21.80
2019-05-19T14:57:17.995Z,21.50
2019-05-19T14:59:45.189Z,21.50
2019-05-19T15:02:12.385Z,21.30
2019-05-19T15:04:39.573Z,21.70
2019-05-19T15:07:06.774Z,22.00
2019-05-19T15:09:33.961Z,22.30
2019-05-19T15:12:01.181Z,22.10
2019-05-19T15:14:28.441Z,22.10
2019-05-19T15:16:55.629Z,21.80
2019-05-19T15:19:22.809Z,22.10
2019-05-19T15:21:50.017Z,22.00
2019-05-19T15:24:17.211Z,22.10
2019-05-19T15:26:44.404Z,22.00
2019-05-19T15:29:11.593Z,21.90
2019-05-19T15:31:38.789Z,22.10
2019-05-19T15:34:05.971Z,21.90
2019-05-19T15:36:33.196Z,22.10
2019-05-19T15:39:00.464Z,22.00
2019-05-19T15:41:27.805Z,22.10
2019-05-19T15:43:55.088Z,22.20
2019-05-19T15:46:22.284Z,22.30
2019-05-19T15:48:49.480Z,22.40
2019-05-19T15:51:28.036Z,22.30
2019-05-19T15:53:45.816Z,22.30
2019-05-19T15:56:13.009Z,22.00
2019-05-19T15:58:40.212Z,21.50
2019-05-19T16:01:07.381Z,21.50
2019-05-19T16:03:34.675Z,21.20
2019-05-19T16:06:01.898Z,21.40
2019-05-19T16:08:29.088Z,21.60
2019-05-19T16:10:56.280Z,21.50
2019-05-19T16:13:23.478Z,21.70
2019-05-19T16:15:50.754Z,21.30
2019-05-19T16:18:18.079Z,21.20
2019-05-19T16:20:45.348Z,21.40
2019-05-19T16:23:12.533Z,21.50
2019-05-19T16:25:39.719Z,21.70
2019-05-19T16:28:06.914Z,21.50
2019-05-19T16:30:34.089Z,20.70
2019-05-19T16:33:01.276Z,20.20
2019-05-19T16:35:28.481Z,19.90
2019-05-19T16:37:56.772Z,19.90
2019-05-19T16:40:23.952Z,19.70
2019-05-19T16:42:51.441Z,19.40
2019-05-19T16:45:18.977Z,19.50
2019-05-19T16:47:46.180Z,19.40
2019-05-19T16:50:13.480Z,19.40
2019-05-19T16:52:40.708Z,19.40
2019-05-19T16:55:36.460Z,19.50
2019-05-19T16:58:19.564Z,19.60
2019-05-19T17:00:32.873Z,19.70
2019-05-19T17:03:00.073Z,19.80
2019-05-19T17:05:27.276Z,19.80
2019-05-19T17:07:54.485Z,19.70
2019-05-19T17:10:21.685Z,19.80
2019-05-19T17:12:48.865Z,19.80
2019-05-19T17:15:16.164Z,19.70
2019-05-19T17:17:43.368Z,19.60
2019-05-19T17:20:11.235Z,19.70
2019-05-19T17:22:38.420Z,19.70
2019-05-19T17:25:06.160Z,19.70
2019-05-19T17:27:33.349Z,19.70
2019-05-19T17:30:00.540Z,19.60
2019-05-19T17:32:27.752Z,19.60
2019-05-19T17:34:54.954Z,19.60
2019-05-19T17:37:22.149Z,19.60
2019-05-19T17:39:49.351Z,19.50
2019-05-19T17:42:16.531Z,19.50
2019-05-19T17:44:43.712Z,19.50
2019-05-19T17:47:10.906Z,19.50
2019-05-19T17:49:38.102Z,19.40
2019-05-19T17:52:05.293Z,19.40
2019-05-19T17:54:32.513Z,19.40
2019-05-19T17:57:01.529Z,19.30
2019-05-19T17:59:29.538Z,19.10
2019-05-19T18:01:56.749Z,19.00
2019-05-19T18:04:23.918Z,19.00
2019-05-19T18:06:51.125Z,19.00
2019-05-19T18:09:18.348Z,18.90
2019-05-19T18:11:45.534Z,18.90
2019-05-19T18:14:12.726Z,18.80
2019-05-19T18:16:39.924Z,18.70
2019-05-19T18:19:07.388Z,18.70
2019-05-19T18:21:34.582Z,18.60
2019-05-19T18:24:02.269Z,18.50
2019-05-19T18:26:29.508Z,18.50
2019-05-19T18:28:56.804Z,18.50
2019-05-19T18:31:23.999Z,18.60
2019-05-19T18:33:51.204Z,18.60
2019-05-19T18:36:18.483Z,18.50
2019-05-19T18:38:45.676Z,18.50
2019-05-19T18:41:12.854Z,18.50
2019-05-19T18:43:40.048Z,18.50
2019-05-19T18:46:07.248Z,18.50
2019-05-19T18:48:34.428Z,18.50
2019-05-19T18:51:01.629Z,18.50
2019-05-19T18:53:28.910Z,18.50
2019-05-19T18:55:56.492Z,18.50
2019-05-19T18:58:24.022Z,18.50
2019-05-19T19:00:51.209Z,18.50
2019-05-19T19:03:18.401Z,18.50
2019-05-19T19:05:45.597Z,18.40
2019-05-19T19:08:12.793Z,18.40
2019-05-19T19:10:40.010Z,18.40
2019-05-19T19:13:07.286Z,18.40
2019-05-19T19:15:34.481Z,18.20
2019-05-19T19:18:01.768Z,18.20
2019-05-19T19:20:29.120Z,18.20
2019-05-19T19:22:56.320Z,18.20
2019-05-19T19:25:23.498Z,18.20
2019-05-19T19:27:50.702Z,18.20
2019-05-19T19:30:18.082Z,18.20
2019-05-19T19:32:45.271Z,18.20
2019-05-19T19:35:12.859Z,18.20
2019-05-19T19:37:40.061Z,18.20
2019-05-19T19:40:07.474Z,18.20
2019-05-19T19:42:34.669Z,18.20
2019-05-19T19:45:01.946Z,18.10
2019-05-19T19:47:29.313Z,18.10
2019-05-19T19:49:56.513Z,18.10
2019-05-19T19:52:23.721Z,18.10
2019-05-19T19:54:50.896Z,18.00
2019-05-19T19:57:18.118Z,18.00
2019-05-19T19:59:45.312Z,17.90
2019-05-19T20:02:12.515Z,18.00
2019-05-19T20:04:39.813Z,17.90
2019-05-19T20:07:07.113Z,17.80
2019-05-19T20:09:34.321Z,17.80
2019-05-19T20:12:01.521Z,17.80
2019-05-19T20:14:28.769Z,17.80
2019-05-19T20:16:55.940Z,17.70
2019-05-19T20:19:23.172Z,17.70
2019-05-19T20:21:50.445Z,17.60
2019-05-19T20:24:17.680Z,17.70
2019-05-19T20:26:45.125Z,17.70
2019-05-19T20:29:12.316Z,17.60
2019-05-19T20:31:39.501Z,17.60
2019-05-19T20:34:06.724Z,17.50
2019-05-19T20:36:33.936Z,17.40
2019-05-19T20:39:01.220Z,17.30
2019-05-19T20:41:28.424Z,17.30
2019-05-19T20:43:55.632Z,17.30
2019-05-19T20:46:22.816Z,17.30
2019-05-19T20:48:50.006Z,17.20
2019-05-19T20:51:17.196Z,17.20
2019-05-19T20:53:44.405Z,17.00
2019-05-19T20:56:11.616Z,17.00
2019-05-19T20:58:38.836Z,17.00
2019-05-19T21:01:06.023Z,17.00
2019-05-19T21:03:33.201Z,17.00
2019-05-19T21:06:00.389Z,16.90
2019-05-19T21:08:27.568Z,17.00
2019-05-19T21:10:54.750Z,16.90
2019-05-19T21:13:21.944Z,16.80
2019-05-19T21:15:49.121Z,16.80
2019-05-19T21:18:16.439Z,16.80
2019-05-19T21:20:43.630Z,16.60
2019-05-19T21:23:10.916Z,16.50
2019-05-19T21:25:38.084Z,16.50
2019-05-19T21:28:05.269Z,16.50
2019-05-19T21:30:32.451Z,16.50
2019-05-19T21:32:59.630Z,16.40
2019-05-19T21:35:26.823Z,16.40
2019-05-19T21:37:54.016Z,16.30
2019-05-19T21:40:21.240Z,16.20
2019-05-19T21:42:48.427Z,16.30
2019-05-19T21:45:15.608Z,16.30
2019-05-19T21:47:42.800Z,16.20
2019-05-19T21:50:10.197Z,16.20
2019-05-19T21:52:37.381Z,16.10
2019-05-19T21:55:05.396Z,16.00
2019-05-19T21:57:32.637Z,16.10
2019-05-19T21:59:59.925Z,16.10
2019-05-19T22:02:27.228Z,16.00
2019-05-19T22:04:54.444Z,16.10
2019-05-19T22:07:36.893Z,16.00
2019-05-19T22:10:04.207Z,15.90
2019-05-19T22:12:31.846Z,15.80
2019-05-19T22:14:59.030Z,15.70
2019-05-19T22:17:26.238Z,15.60
2019-05-19T22:19:53.404Z,15.50
2019-05-19T22:22:20.596Z,15.50
2019-05-19T22:24:47.794Z,15.30
2019-05-19T22:27:14.988Z,15.30
2019-05-19T22:29:42.164Z,15.20
2019-05-19T22:32:09.368Z,15.20
2019-05-19T22:34:36.540Z,15.10
2019-05-19T22:37:03.733Z,15.10
2019-05-19T22:39:30.932Z,15.00
2019-05-19T22:41:58.120Z,15.10
2019-05-19T22:44:25.304Z,15.10
2019-05-19T22:46:52.501Z,15.00
2019-05-19T22:49:19.672Z,14.90
2019-05-19T22:51:46.868Z,14.90
2019-05-19T22:54:14.052Z,14.90
2019-05-19T22:56:41.232Z,14.90
2019-05-19T22:59:19.410Z,14.70
2019-05-19T23:01:50.986Z,14.80
2019-05-19T23:04:06.640Z,14.70
2019-05-19T23:06:35.728Z,14.70
2019-05-19T23:09:05.168Z,14.80
2019-05-19T23:11:32.348Z,14.80
2019-05-19T23:13:59.732Z,14.80
2019-05-19T23:16:26.921Z,14.90
2019-05-19T23:18:54.114Z,15.10
2019-05-19T23:21:21.292Z,15.30
2019-05-19T23:23:48.496Z,15.40
2019-05-19T23:26:15.673Z,15.50
2019-05-19T23:28:42.881Z,15.50
2019-05-19T23:31:10.085Z,15.60
2019-05-19T23:33:37.272Z,15.60
2019-05-19T23:36:04.456Z,15.60
2019-05-19T23:38:32.169Z,15.60
2019-05-19T23:40:59.352Z,15.60
2019-05-19T23:43:26.563Z,15.50
2019-05-19T23:45:53.948Z,15.50
2019-05-19T23:48:21.136Z,15.50
2019-05-19T23:50:48.317Z,15.50
2019-05-19T23:53:15.500Z,15.50
2019-05-19T23:55:42.672Z,15.50
2019-05-19T23:58:09.864Z,15.50
